»·PEaware :: AAL822 KBUR-KLAS

AAL822 :: KBUR-KLAS

FLIGHT INFORMATION

Flight Status: Arrived
Operator:
American Airlines
More flights by this operator :: More flights under this callsign
Pilot: Max W. (2591)
Aircraft: BOEING 727-100
(B721)
More flights by this aircraft type
Origin: KBUR Bob Hope-Burbank
United States
Destination: KLAS McCarran Intl
United States
More flights between these airports :: More routes between these airports
Route: VNY3 DAG CLARR3
File this flight plan on PilotEdge
Remarks:
Altitude:
(Current/Filed)
25,000ft
Speed:
(Current/Filed)
450kts
Departed: 13-Aug-18 01:42 PM
Arrived: 13-Aug-18 02:26 PM
Distance/Time
Traveled:
194nm/0:44
Distance/Time
To Go:
Arrived

Flight Plot

Page will automatically refresh every two minutes.

Flight plan parsing failed; only flown route is shown


Map Options




Map Legend


Flown Route
Filed Route
Departure Airport
Arrival Airport
Navaid (VOR, NDB)
Fix

Horizontal Profiles

Position Reports

Time Latitude Longitude Heading Altitude Ground
Speed
13-Aug-18 13:17 34.196159 -118.355007 125 788ft 0kts
13-Aug-18 13:18 34.196159 -118.355007 125 788ft 0kts
13-Aug-18 13:19 34.196159 -118.355007 125 787ft 0kts
13-Aug-18 13:20 34.196159 -118.355007 125 787ft 0kts
13-Aug-18 13:21 34.196159 -118.355007 125 787ft 0kts
13-Aug-18 13:22 34.196159 -118.355007 125 787ft 0kts
13-Aug-18 13:23 34.196159 -118.355007 125 787ft 0kts
13-Aug-18 13:24 34.196159 -118.355007 125 787ft 0kts
13-Aug-18 13:25 34.196159 -118.355007 125 787ft 0kts
13-Aug-18 13:26 34.196159 -118.355007 125 787ft 0kts
13-Aug-18 13:27 34.196159 -118.355007 125 787ft 0kts
13-Aug-18 13:28 34.196159 -118.355007 125 787ft 0kts
13-Aug-18 13:29 34.196159 -118.355007 125 787ft 0kts
13-Aug-18 13:30 34.196217 -118.355105 125 788ft 0kts
13-Aug-18 13:31 34.196145 -118.355748 35 788ft 2kts
13-Aug-18 13:32 34.195795 -118.355819 347 788ft 0kts
13-Aug-18 13:33 34.195795 -118.355819 347 788ft 0kts
13-Aug-18 13:34 34.195795 -118.355819 347 788ft 0kts
13-Aug-18 13:35 34.195795 -118.355819 347 788ft 0kts
13-Aug-18 13:36 34.195795 -118.355819 347 788ft 0kts
13-Aug-18 13:37 34.195795 -118.355819 347 788ft 0kts
13-Aug-18 13:38 34.199985 -118.355714 346 787ft 24kts
13-Aug-18 13:39 34.207492 -118.357753 346 787ft 25kts
13-Aug-18 13:40 34.211092 -118.358747 344 788ft 0kts
13-Aug-18 13:41 34.211237 -118.358802 339 788ft 3kts
13-Aug-18 13:42 34.212187 -118.360034 297 788ft 11kts
13-Aug-18 13:43 34.188371 -118.354342 175 1502ft 174kts
13-Aug-18 13:44 34.143567 -118.387055 227 4469ft 209kts
13-Aug-18 13:45 34.146350 -118.455252 311 7503ft 246kts
13-Aug-18 13:46 34.217001 -118.479317 355 10226ft 289kts
13-Aug-18 13:47 34.298040 -118.482694 0 13418ft 300kts
13-Aug-18 13:48 34.385560 -118.471973 32 15534ft 336kts
13-Aug-18 13:49 34.439060 -118.381114 58 17553ft 361kts
13-Aug-18 13:50 34.497521 -118.280269 55 19866ft 376kts
13-Aug-18 13:51 34.561323 -118.176385 54 21634ft 398kts
13-Aug-18 13:52 34.627968 -118.069156 54 23481ft 409kts
13-Aug-18 13:53 34.692145 -117.956836 73 24990ft 417kts
13-Aug-18 13:54 34.700856 -117.811993 92 25026ft 456kts
13-Aug-18 13:55 34.696071 -117.655550 81 25062ft 485kts
13-Aug-18 13:56 34.730232 -117.493617 74 25076ft 509kts
13-Aug-18 13:57 34.772345 -117.330181 73 25076ft 521kts
13-Aug-18 13:58 34.813790 -117.163399 74 25043ft 535kts
13-Aug-18 13:59 34.857891 -116.991643 73 25000ft 545kts
13-Aug-18 14:00 34.902042 -116.816683 73 24993ft 553kts
13-Aug-18 14:01 34.967529 -116.655063 62 24988ft 543kts
13-Aug-18 14:02 35.013892 -116.483289 53 24672ft 521kts
13-Aug-18 14:03 35.111567 -116.374364 25 24081ft 459kts
13-Aug-18 14:04 35.193376 -116.290146 49 24034ft 452kts
13-Aug-18 14:05 35.271503 -116.186260 46 23305ft 426kts
13-Aug-18 14:06 35.351676 -116.082896 46 21605ft 417kts
13-Aug-18 14:07 35.429078 -115.983017 45 19139ft 399kts
13-Aug-18 14:08 35.504364 -115.888835 45 15620ft 380kts
13-Aug-18 14:09 35.575830 -115.799179 45 13073ft 351kts
13-Aug-18 14:10 35.641402 -115.716825 45 13055ft 329kts
13-Aug-18 14:11 35.706415 -115.637932 47 13064ft 337kts
13-Aug-18 14:12 35.771168 -115.553872 46 13048ft 331kts
13-Aug-18 14:13 35.846309 -115.516968 350 13064ft 304kts
13-Aug-18 14:14 35.930247 -115.531753 351 12287ft 306kts
13-Aug-18 14:15 36.012800 -115.532105 29 11256ft 304kts
13-Aug-18 14:16 36.035078 -115.444022 95 11001ft 278kts
13-Aug-18 14:17 36.029050 -115.348680 96 10753ft 293kts
13-Aug-18 14:18 36.022451 -115.249537 96 9688ft 296kts
13-Aug-18 14:19 36.015524 -115.149542 96 9071ft 293kts
13-Aug-18 14:20 36.008865 -115.050054 96 8272ft 291kts
13-Aug-18 14:21 36.002114 -114.954288 96 5248ft 290kts
13-Aug-18 14:22 36.032140 -114.875129 11 5016ft 275kts
13-Aug-18 14:23 36.075613 -114.923044 269 4917ft 230kts
13-Aug-18 14:24 36.073700 -115.001929 269 3884ft 227kts
13-Aug-18 14:25 36.074043 -115.071882 267 3229ft 158kts
13-Aug-18 14:26 36.073676 -115.121339 266 2232ft 138kts
13-Aug-18 14:27 36.076807 -115.146431 348 2123ft 24kts
13-Aug-18 14:28 36.078096 -115.146957 357 2123ft 11kts
13-Aug-18 14:29 36.079219 -115.138151 60 2123ft 30kts

Navigation Log

Ident Type
Flight plan parsing failed, navigation log unavailable